Observation data for Goodlett on 05/13/2018      Previous  Date  Next       Current Mesonet Observations  Soil Data  Daily Summary Page  Observations in Plain Language
KGDS 130500Z 14012KT 27/14 A2988 RMK A01 T02660140  RH  047%=      5-min Rain = 0
KGDS 130505Z 14012KT 27/14 A2988 RMK A01 T02650140  RH  047%=      5-min Rain = 0
KGDS 130510Z 14013G18KT 27/14 A2988 RMK A01 T02650140  RH  047%=      5-min Rain = 0
KGDS 130515Z 14013KT 27/14 A2988 RMK A01 T02650140  RH  047%=      5-min Rain = 0
KGDS 130520Z 14013KT 26/14 A2988 RMK A01 T02640140  RH  047%=      5-min Rain = 0
KGDS 130525Z 14012KT 26/14 A2988 RMK A01 T02630140  RH  048%=      5-min Rain = 0
KGDS 130530Z 14011KT 26/14 A2988 RMK A01 T02620140  RH  048%=      5-min Rain = 0
KGDS 130535Z 14012G18KT 26/14 A2988 RMK A01 T02620141  RH  048%=      5-min Rain = 0
KGDS 130540Z 14013G18KT 26/14 A2988 RMK A01 T02620141  RH  048%=      5-min Rain = 0
KGDS 130545Z 14013G18KT 26/14 A2988 RMK A01 T02630142  RH  048%=      5-min Rain = 0
KGDS 130550Z 14015KT 26/14 A2988 RMK A01 T02640143  RH  048%=      5-min Rain = 0
KGDS 130555Z 14014G19KT 26/14 A2988 RMK A01 T02640143  RH  048%=      5-min Rain = 0
KGDS 130600Z 14014KT 26/14 A2988 RMK A01 T02640144  RH  049%=      5-min Rain = 0
KGDS 130605Z 15014G19KT 26/14 A2988 RMK A01 T02630144  RH  049%=      5-min Rain = 0
KGDS 130610Z 14015G21KT 26/14 A2988 RMK A01 T02630144  RH  049%=      5-min Rain = 0
KGDS 130615Z 14015KT 26/14 A2988 RMK A01 T02620144  RH  049%=      5-min Rain = 0
KGDS 130620Z 14013G18KT 26/14 A2988 RMK A01 T02610144  RH  050%=      5-min Rain = 0
KGDS 130625Z 14012KT 26/15 A2987 RMK A01 T02600145  RH  050%=      5-min Rain = 0
KGDS 130630Z 14014KT 26/15 A2987 RMK A01 T02590145  RH  050%=      5-min Rain = 0
KGDS 130635Z 14014KT 26/15 A2988 RMK A01 T02600145  RH  050%=      5-min Rain = 0
KGDS 130640Z 14013KT 26/15 A2988 RMK A01 T02590145  RH  051%=      5-min Rain = 0
KGDS 130645Z 14014G19KT 26/15 A2987 RMK A01 T02590146  RH  051%=      5-min Rain = 0
KGDS 130650Z 14014KT 26/15 A2987 RMK A01 T02580146  RH  051%=      5-min Rain = 0
KGDS 130655Z 14013KT 26/15 A2987 RMK A01 T02580146  RH  051%=      5-min Rain = 0
KGDS 130700Z 14015G20KT 26/15 A2987 RMK A01 T02570146  RH  051%=      5-min Rain = 0
KGDS 130705Z 14015KT 26/15 A2987 RMK A01 T02580147  RH  051%=      5-min Rain = 0
KGDS 130710Z 14014KT 26/15 A2987 RMK A01 T02580147  RH  051%=      5-min Rain = 0
KGDS 130715Z 15013G18KT 26/15 A2988 RMK A01 T02570147  RH  052%=      5-min Rain = 0
KGDS 130720Z 15012KT 26/15 A2988 RMK A01 T02570147  RH  052%=      5-min Rain = 0
KGDS 130725Z 15012KT 26/15 A2988 RMK A01 T02560147  RH  052%=      5-min Rain = 0
KGDS 130730Z 15013KT 26/15 A2987 RMK A01 T02550147  RH  052%=      5-min Rain = 0
KGDS 130735Z 15013KT 25/15 A2987 RMK A01 T02540147  RH  053%=      5-min Rain = 0
KGDS 130740Z 15013G18KT 25/15 A2987 RMK A01 T02530147  RH  053%=      5-min Rain = 0
KGDS 130745Z 15013KT 25/15 A2987 RMK A01 T02520147  RH  053%=      5-min Rain = 0
KGDS 130750Z 15013KT 25/15 A2987 RMK A01 T02510148  RH  054%=      5-min Rain = 0
KGDS 130755Z 15013KT 25/15 A2987 RMK A01 T02510148  RH  054%=      5-min Rain = 0
KGDS 130800Z 15014KT 25/15 A2986 RMK A01 T02510148  RH  054%=      5-min Rain = 0
KGDS 130805Z 15012KT 25/15 A2986 RMK A01 T02510148  RH  054%=      5-min Rain = 0
KGDS 130810Z 15012KT 25/15 A2986 RMK A01 T02500149  RH  055%=      5-min Rain = 0
KGDS 130815Z 15013KT 25/15 A2986 RMK A01 T02500149  RH  054%=      5-min Rain = 0
KGDS 130820Z 15012KT 25/15 A2986 RMK A01 T02500149  RH  054%=      5-min Rain = 0
KGDS 130825Z 15013KT 25/15 A2986 RMK A01 T02500149  RH  055%=      5-min Rain = 0
KGDS 130830Z 15013KT 25/15 A2986 RMK A01 T02490149  RH  055%=      5-min Rain = 0
KGDS 130835Z 15013G18KT 25/15 A2986 RMK A01 T02500150  RH  055%=      5-min Rain = 0
KGDS 130840Z 15014KT 25/15 A2986 RMK A01 T02500150  RH  055%=      5-min Rain = 0
KGDS 130845Z 15013KT 25/15 A2986 RMK A01 T02500150  RH  055%=      5-min Rain = 0
KGDS 130850Z 15011G17KT 25/15 A2986 RMK A01 T02490150  RH  055%=      5-min Rain = 0
KGDS 130855Z 15012KT 25/15 A2986 RMK A01 T02490150  RH  055%=      5-min Rain = 0
KGDS 130900Z 15012KT 25/15 A2986 RMK A01 T02490150  RH  055%=      5-min Rain = 0
KGDS 130905Z 15013KT 25/15 A2986 RMK A01 T02490150  RH  055%=      5-min Rain = 0
KGDS 130910Z 15013KT 25/15 A2986 RMK A01 T02480150  RH  056%=      5-min Rain = 0
KGDS 130915Z 16013KT 25/15 A2986 RMK A01 T02480150  RH  056%=      5-min Rain = 0
KGDS 130920Z 15013KT 25/15 A2986 RMK A01 T02480150  RH  056%=      5-min Rain = 0
KGDS 130925Z 15012KT 25/15 A2986 RMK A01 T02470150  RH  056%=      5-min Rain = 0
KGDS 130930Z 16011KT 25/15 A2987 RMK A01 T02460150  RH  056%=      5-min Rain = 0
KGDS 130935Z 16011KT 24/15 A2987 RMK A01 T02440150  RH  057%=      5-min Rain = 0
KGDS 130940Z 16010KT 24/15 A2987 RMK A01 T02430150  RH  057%=      5-min Rain = 0
KGDS 130945Z 16010KT 24/15 A2987 RMK A01 T02420150  RH  057%=      5-min Rain = 0
KGDS 130950Z 16009KT 24/15 A2987 RMK A01 T02410150  RH  058%=      5-min Rain = 0
KGDS 130955Z 16009KT 24/15 A2988 RMK A01 T02400150  RH  058%=      5-min Rain = 0
KGDS 131000Z 16009KT 24/15 A2988 RMK A01 T02400150  RH  058%=      5-min Rain = 0
KGDS 131005Z 16010KT 24/15 A2988 RMK A01 T02400150  RH  058%=      5-min Rain = 0
KGDS 131010Z 16011KT 24/15 A2988 RMK A01 T02400150  RH  058%=      5-min Rain = 0
KGDS 131015Z 16011KT 24/15 A2988 RMK A01 T02400150  RH  058%=      5-min Rain = 0
KGDS 131020Z 16011KT 24/15 A2989 RMK A01 T02390150  RH  059%=      5-min Rain = 0
KGDS 131025Z 16011KT 24/15 A2989 RMK A01 T02390150  RH  059%=      5-min Rain = 0
KGDS 131030Z 15011KT 24/15 A2989 RMK A01 T02380150  RH  059%=      5-min Rain = 0
KGDS 131035Z 15012KT 24/15 A2989 RMK A01 T02370150  RH  059%=      5-min Rain = 0
KGDS 131040Z 16012KT 24/15 A2989 RMK A01 T02370150  RH  059%=      5-min Rain = 0
KGDS 131045Z 16012KT 24/15 A2989 RMK A01 T02360150  RH  060%=      5-min Rain = 0
KGDS 131050Z 16011KT 24/15 A2989 RMK A01 T02360150  RH  060%=      5-min Rain = 0
KGDS 131055Z 16011KT 24/15 A2989 RMK A01 T02360150  RH  060%=      5-min Rain = 0
KGDS 131100Z 16011KT 24/15 A2989 RMK A01 T02350150  RH  060%=      5-min Rain = 0
KGDS 131105Z 16010KT 23/15 A2989 RMK A01 T02330150  RH  061%=      5-min Rain = 0
KGDS 131110Z 17010KT 23/15 A2989 RMK A01 T02320150  RH  061%=      5-min Rain = 0
KGDS 131115Z 17009KT 23/15 A2989 RMK A01 T02300150  RH  062%=      5-min Rain = 0
KGDS 131120Z 16010KT 23/15 A2989 RMK A01 T02300150  RH  062%=      5-min Rain = 0
KGDS 131125Z 16010KT 23/15 A299 RMK A01 T02290150  RH  062%=      5-min Rain = 0
KGDS 131130Z 16010KT 23/15 A299 RMK A01 T02290150  RH  062%=      5-min Rain = 0
KGDS 131135Z 16009KT 23/15 A299 RMK A01 T02280150  RH  063%=      5-min Rain = 0
KGDS 131140Z 16009KT 23/15 A299 RMK A01 T02270150  RH  063%=      5-min Rain = 0
KGDS 131145Z 15008KT 23/15 A299 RMK A01 T02250150  RH  064%=      5-min Rain = 0
KGDS 131150Z 15008KT 22/15 A299 RMK A01 T02240150  RH  064%=      5-min Rain = 0
KGDS 131155Z 15007KT 22/15 A2991 RMK A01 T02230150  RH  065%=      5-min Rain = 0
KGDS 131200Z 15008KT 22/15 A2991 RMK A01 T02230150  RH  065%=      5-min Rain = 0
KGDS 131205Z 15007KT 22/15 A2991 RMK A01 T02230150  RH  065%=      5-min Rain = 0
KGDS 131210Z 15007KT 22/15 A2992 RMK A01 T02230151  RH  065%=      5-min Rain = 0
KGDS 131215Z 14006KT 22/15 A2992 RMK A01 T02240151  RH  065%=      5-min Rain = 0
KGDS 131220Z 13005KT 23/15 A2992 RMK A01 T02250152  RH  065%=      5-min Rain = 0
KGDS 131225Z 13006KT 23/15 A2992 RMK A01 T02250152  RH  065%=      5-min Rain = 0
KGDS 131230Z 14007KT 23/15 A2993 RMK A01 T02250153  RH  065%=      5-min Rain = 0
KGDS 131235Z 14007KT 23/15 A2993 RMK A01 T02260153  RH  065%=      5-min Rain = 0
KGDS 131240Z 14008KT 23/15 A2993 RMK A01 T02270154  RH  065%=      5-min Rain = 0
KGDS 131245Z 14008KT 23/15 A2993 RMK A01 T02270154  RH  065%=      5-min Rain = 0
KGDS 131250Z 15009KT 23/15 A2993 RMK A01 T02280154  RH  065%=      5-min Rain = 0
KGDS 131255Z 15009KT 23/16 A2993 RMK A01 T02290155  RH  064%=      5-min Rain = 0
KGDS 131300Z 15010KT 23/16 A2993 RMK A01 T02310155  RH  064%=      5-min Rain = 0
KGDS 131305Z 15010KT 23/16 A2993 RMK A01 T02330156  RH  063%=      5-min Rain = 0
KGDS 131310Z 15010KT 24/16 A2993 RMK A01 T02350157  RH  063%=      5-min Rain = 0
KGDS 131315Z 16011KT 24/16 A2993 RMK A01 T02380158  RH  062%=      5-min Rain = 0
KGDS 131320Z 16011KT 24/16 A2993 RMK A01 T02400159  RH  062%=      5-min Rain = 0
KGDS 131325Z 16011KT 24/16 A2993 RMK A01 T02420159  RH  061%=      5-min Rain = 0
KGDS 131330Z 16012G17KT 24/16 A2993 RMK A01 T02430160  RH  061%=      5-min Rain = 0
KGDS 131335Z 17011KT 24/16 A2993 RMK A01 T02440160  RH  061%=      5-min Rain = 0
KGDS 131340Z 17011KT 25/16 A2993 RMK A01 T02460161  RH  061%=      5-min Rain = 0
KGDS 131345Z 17011KT 25/16 A2993 RMK A01 T02460161  RH  060%=      5-min Rain = 0
KGDS 131350Z 17011KT 25/16 A2993 RMK A01 T02470161  RH  060%=      5-min Rain = 0
KGDS 131355Z 17012KT 25/16 A2993 RMK A01 T02480162  RH  060%=      5-min Rain = 0
KGDS 131400Z 17012KT 25/16 A2993 RMK A01 T02490162  RH  060%=      5-min Rain = 0
KGDS 131405Z 17012KT 25/16 A2994 RMK A01 T02500163  RH  060%=      5-min Rain = 0
KGDS 131410Z 17011KT 25/16 A2993 RMK A01 T02510163  RH  060%=      5-min Rain = 0
KGDS 131415Z 17014KT 25/16 A2993 RMK A01 T02530164  RH  059%=      5-min Rain = 0
KGDS 131420Z 17012KT 26/17 A2993 RMK A01 T02560165  RH  059%=      5-min Rain = 0
KGDS 131425Z 17013G18KT 26/17 A2993 RMK A01 T02580166  RH  058%=      5-min Rain = 0
KGDS 131430Z 17014KT 26/17 A2993 RMK A01 T02630167  RH  057%=      5-min Rain = 0
KGDS 131435Z 18014KT 27/17 A2993 RMK A01 T02650167  RH  056%=      5-min Rain = 0
KGDS 131440Z 17014G19KT 27/17 A2993 RMK A01 T02700168  RH  055%=      5-min Rain = 0
KGDS 131445Z 17014G19KT 27/17 A2993 RMK A01 T02700168  RH  055%=      5-min Rain = 0
KGDS 131450Z 17016G21KT 27/17 A2993 RMK A01 T02740168  RH  054%=      5-min Rain = 0
KGDS 131455Z 17015G20KT 27/17 A2993 RMK A01 T02730168  RH  054%=      5-min Rain = 0
KGDS 131500Z 18017G22KT 28/17 A2993 RMK A01 T02760168  RH  053%=      5-min Rain = 0
KGDS 131505Z 18015KT 28/17 A2993 RMK A01 T02800168  RH  052%=      5-min Rain = 0
KGDS 131510Z 17015G20KT 28/17 A2993 RMK A01 T02810169  RH  052%=      5-min Rain = 0
KGDS 131515Z 18016G22KT 29/17 A2993 RMK A01 T02850169  RH  050%=      5-min Rain = 0
KGDS 131520Z 19016KT 28/17 A2993 RMK A01 T02840168  RH  051%=      5-min Rain = 0
KGDS 131525Z 19015KT 29/17 A2993 RMK A01 T02850169  RH  051%=      5-min Rain = 0
KGDS 131530Z 19013KT 29/17 A2993 RMK A01 T02870169  RH  050%=      5-min Rain = 0
KGDS 131535Z 18013KT 29/17 A2993 RMK A01 T02860170  RH  051%=      5-min Rain = 0
KGDS 131540Z 18014KT 29/17 A2993 RMK A01 T02910170  RH  049%=      5-min Rain = 0
KGDS 131545Z 19013G19KT 29/17 A2993 RMK A01 T02930170  RH  049%=      5-min Rain = 0
KGDS 131550Z 18016G22KT 30/17 A2993 RMK A01 T02950170  RH  048%=      5-min Rain = 0
KGDS 131555Z 19014G20KT 30/17 A2993 RMK A01 T02970170  RH  047%=      5-min Rain = 0
KGDS 131600Z 19014G19KT 30/17 A2993 RMK A01 T02980171  RH  048%=      5-min Rain = 0
KGDS 131605Z 19015G20KT 30/17 A2993 RMK A01 T02960171  RH  048%=      5-min Rain = 0
KGDS 131610Z 19014KT 30/17 A2993 RMK A01 T02990172  RH  048%=      5-min Rain = 0
KGDS 131615Z 19014G22KT 30/17 A2993 RMK A01 T03000172  RH  047%=      5-min Rain = 0
KGDS 131620Z 19014G20KT 30/17 A2993 RMK A01 T03040171  RH  046%=      5-min Rain = 0
KGDS 131625Z 18012G17KT 31/17 A2993 RMK A01 T03050173  RH  046%=      5-min Rain = 0
KGDS 131630Z 19013G18KT 31/17 A2992 RMK A01 T03100172  RH  045%=      5-min Rain = 0
KGDS 131635Z 18014G19KT 31/17 A2992 RMK A01 T03080172  RH  045%=      5-min Rain = 0
KGDS 131640Z 18013G19KT 31/17 A2992 RMK A01 T03100172  RH  045%=      5-min Rain = 0
KGDS 131645Z 17014G23KT 31/17 A2992 RMK A01 T03110173  RH  045%=      5-min Rain = 0
KGDS 131650Z 19015G21KT 31/17 A2992 RMK A01 T03140171  RH  044%=      5-min Rain = 0
KGDS 131655Z 19014G20KT 32/17 A2992 RMK A01 T03170171  RH  043%=      5-min Rain = 0
KGDS 131700Z 19014G21KT 32/17 A2992 RMK A01 T03170170  RH  042%=      5-min Rain = 0
KGDS 131705Z 19013G19KT 32/17 A2992 RMK A01 T03200171  RH  042%=      5-min Rain = 0
KGDS 131710Z 18014G20KT 32/17 A2991 RMK A01 T03230170  RH  041%=      5-min Rain = 0
KGDS 131715Z 20013G18KT 32/17 A2991 RMK A01 T03240170  RH  041%=      5-min Rain = 0
KGDS 131720Z 19013G18KT 32/17 A2991 RMK A01 T03240168  RH  040%=      5-min Rain = 0
KGDS 131725Z 18013G19KT 32/17 A2991 RMK A01 T03240168  RH  040%=      5-min Rain = 0
KGDS 131730Z 16014G19KT 33/17 A2991 RMK A01 T03260169  RH  040%=      5-min Rain = 0
KGDS 131735Z 16014KT 33/17 A2991 RMK A01 T03280170  RH  040%=      5-min Rain = 0
KGDS 131740Z 17015KT 33/17 A299 RMK A01 T03290168  RH  039%=      5-min Rain = 0
KGDS 131745Z 17014G21KT 33/17 A299 RMK A01 T03310167  RH  038%=      5-min Rain = 0
KGDS 131750Z 18014G19KT 33/17 A299 RMK A01 T03310169  RH  039%=      5-min Rain = 0
KGDS 131755Z 17011G19KT 33/17 A299 RMK A01 T03320168  RH  038%=      5-min Rain = 0
KGDS 131800Z 19010G16KT 34/17 A299 RMK A01 T03380166  RH  037%=      5-min Rain = 0
KGDS 131805Z 18014G19KT 34/16 A2989 RMK A01 T03400164  RH  036%=      5-min Rain = 0
KGDS 131810Z 17012G19KT 34/16 A2989 RMK A01 T03360164  RH  037%=      5-min Rain = 0
KGDS 131815Z 18013G19KT 34/16 A2989 RMK A01 T03400163  RH  036%=      5-min Rain = 0
KGDS 131820Z 18012G17KT 34/16 A2989 RMK A01 T03350164  RH  037%=      5-min Rain = 0
KGDS 131825Z 18011G19KT 34/17 A2989 RMK A01 T03360165  RH  037%=      5-min Rain = 0
KGDS 131830Z 18012G19KT 34/16 A2989 RMK A01 T03370163  RH  036%=      5-min Rain = 0
KGDS 131835Z 16011G17KT 34/16 A2989 RMK A01 T03350163  RH  037%=      5-min Rain = 0
KGDS 131840Z 16012G17KT 34/16 A2989 RMK A01 T03400162  RH  035%=      5-min Rain = 0
KGDS 131845Z 16012G18KT 34/16 A2988 RMK A01 T03420160  RH  035%=      5-min Rain = 0
KGDS 131850Z 18015KT 35/16 A2988 RMK A01 T03470157  RH  033%=      5-min Rain = 0
KGDS 131855Z 17010G16KT 34/16 A2988 RMK A01 T03440156  RH  033%=      5-min Rain = 0
KGDS 131900Z 16011G20KT 35/16 A2988 RMK A01 T03450159  RH  034%=      5-min Rain = 0
KGDS 131905Z 16014G20KT 35/16 A2987 RMK A01 T03490160  RH  033%=      5-min Rain = 0
KGDS 131910Z 16013G19KT 35/16 A2987 RMK A01 T03490159  RH  033%=      5-min Rain = 0
KGDS 131915Z 16014G19KT 36/16 A2987 RMK A01 T03560158  RH  032%=      5-min Rain = 0
KGDS 131920Z 15013G18KT 36/15 A2987 RMK A01 T03560154  RH  031%=      5-min Rain = 0
KGDS 131925Z 16017G22KT 35/16 A2987 RMK A01 T03520156  RH  032%=      5-min Rain = 0
KGDS 131930Z 15011G19KT 35/16 A2987 RMK A01 T03470155  RH  032%=      5-min Rain = 0
KGDS 131935Z 17014G19KT 35/15 A2986 RMK A01 T03530152  RH  031%=      5-min Rain = 0
KGDS 131940Z 15010KT 35/16 A2986 RMK A01 T03450155  RH  033%=      5-min Rain = 0
KGDS 131945Z 14014G19KT 35/15 A2986 RMK A01 T03450153  RH  033%=      5-min Rain = 0
KGDS 131950Z 16011G17KT 35/15 A2986 RMK A01 T03480151  RH  032%=      5-min Rain = 0
KGDS 131955Z 16013G18KT 35/15 A2985 RMK A01 T03500153  RH  032%=      5-min Rain = 0
KGDS 132000Z 16012G17KT 35/15 A2985 RMK A01 T03490153  RH  032%=      5-min Rain = 0
KGDS 132005Z 15013G21KT 35/15 A2985 RMK A01 T03500152  RH  031%=      5-min Rain = 0
KGDS 132010Z 14015KT 35/15 A2985 RMK A01 T03530150  RH  031%=      5-min Rain = 0
KGDS 132015Z 14017G24KT 35/15 A2985 RMK A01 T03510151  RH  031%=      5-min Rain = 0
KGDS 132020Z 15014G19KT 35/15 A2985 RMK A01 T03510152  RH  031%=      5-min Rain = 0
KGDS 132025Z 15019KT 35/15 A2984 RMK A01 T03510151  RH  031%=      5-min Rain = 0
KGDS 132030Z 15013G21KT 34/15 A2984 RMK A01 T03440149  RH  032%=      5-min Rain = 0
KGDS 132035Z 14015G21KT 35/15 A2984 RMK A01 T03480147  RH  031%=      5-min Rain = 0
KGDS 132040Z 15015G21KT 36/15 A2983 RMK A01 T03550147  RH  029%=      5-min Rain = 0
KGDS 132045Z 14017G22KT 36/15 A2983 RMK A01 T03620152  RH  029%=      5-min Rain = 0
KGDS 132050Z 13016KT 36/15 A2983 RMK A01 T03550149  RH  030%=      5-min Rain = 0
KGDS 132055Z 14018G24KT 36/15 A2983 RMK A01 T03590146  RH  029%=      5-min Rain = 0
KGDS 132100Z 15016G22KT 36/15 A2982 RMK A01 T03630146  RH  028%=      5-min Rain = 0
KGDS 132105Z 14018G26KT 36/15 A2982 RMK A01 T03620145  RH  028%=      5-min Rain = 0
KGDS 132110Z 15015G23KT 36/15 A2982 RMK A01 T03640145  RH  028%=      5-min Rain = 0
KGDS 132115Z 15017G25KT 36/15 A2982 RMK A01 T03640146  RH  028%=      5-min Rain = 0
KGDS 132120Z 15019G25KT 36/13 A2982 RMK A01 T03620128  RH  025%=      5-min Rain = 0
KGDS 132125Z 15017KT 36/14 A2982 RMK A01 T03640136  RH  026%=      5-min Rain = 0
KGDS 132130Z 14017G24KT 36/15 A2982 RMK A01 T03590145  RH  029%=      5-min Rain = 0
KGDS 132135Z 14020G25KT 36/15 A2981 RMK A01 T03560147  RH  029%=      5-min Rain = 0
KGDS 132140Z 15018G25KT 36/15 A2981 RMK A01 T03590147  RH  029%=      5-min Rain = 0
KGDS 132145Z 15019G27KT 36/15 A2981 RMK A01 T03600145  RH  028%=      5-min Rain = 0
KGDS 132150Z 14018G25KT 36/14 A2981 RMK A01 T03590144  RH  028%=      5-min Rain = 0
KGDS 132155Z 16021G27KT 36/14 A2981 RMK A01 T03570142  RH  028%=      5-min Rain = 0
KGDS 132200Z 14018G24KT 36/14 A2981 RMK A01 T03570144  RH  029%=      5-min Rain = 0
KGDS 132205Z 14020G26KT 36/14 A298 RMK A01 T03550142  RH  029%=      5-min Rain = 0
KGDS 132210Z 14019G27KT 36/14 A298 RMK A01 T03560143  RH  029%=      5-min Rain = 0
KGDS 132215Z 15020G27KT 35/14 A298 RMK A01 T03520140  RH  029%=      5-min Rain = 0
KGDS 132220Z 15021G27KT 35/14 A298 RMK A01 T03500136  RH  028%=      5-min Rain = 0
KGDS 132225Z 17018G23KT 35/14 A2979 RMK A01 T03490136  RH  028%=      5-min Rain = 0
KGDS 132230Z 14019G26KT 35/14 A2978 RMK A01 T03470144  RH  030%=      5-min Rain = 0
KGDS 132235Z 13022G27KT 34/15 A2978 RMK A01 T03380148  RH  033%=      5-min Rain = 0
KGDS 132240Z 15020G26KT 34/14 A2979 RMK A01 T03360141  RH  031%=      5-min Rain = 0
KGDS 132245Z 16019G25KT 34/14 A2979 RMK A01 T03360143  RH  032%=      5-min Rain = 0
KGDS 132250Z 16020G25KT 33/15 A298 RMK A01 T03330146  RH  033%=      5-min Rain = 0
KGDS 132255Z 15020KT 33/15 A298 RMK A01 T03310145  RH  033%=      5-min Rain = 0
KGDS 132300Z 15020G25KT 33/14 A298 RMK A01 T03290143  RH  033%=      5-min Rain = 0
KGDS 132305Z 16019G26KT 33/14 A298 RMK A01 T03270142  RH  033%=      5-min Rain = 0
KGDS 132310Z 15019KT 33/14 A298 RMK A01 T03260140  RH  033%=      5-min Rain = 0
KGDS 132315Z 15020KT 33/14 A2979 RMK A01 T03250140  RH  033%=      5-min Rain = 0
KGDS 132320Z 15017G22KT 33/14 A298 RMK A01 T03250140  RH  033%=      5-min Rain = 0
KGDS 132325Z 16017G22KT 32/14 A2979 RMK A01 T03240141  RH  034%=      5-min Rain = 0
KGDS 132330Z 15016G21KT 32/14 A2978 RMK A01 T03230141  RH  034%=      5-min Rain = 0
KGDS 132335Z 14016G22KT 32/14 A2978 RMK A01 T03220141  RH  034%=      5-min Rain = 0
KGDS 132340Z 14016G23KT 32/15 A2978 RMK A01 T03200148  RH  036%=      5-min Rain = 0
KGDS 132345Z 14017G22KT 32/15 A2979 RMK A01 T03200148  RH  036%=      5-min Rain = 0
KGDS 132350Z 14017G22KT 32/15 A2979 RMK A01 T03190147  RH  036%=      5-min Rain = 0
KGDS 132355Z 14016G22KT 32/15 A2979 RMK A01 T03190146  RH  036%=      5-min Rain = 0
KGDS 140000Z 14014KT 32/15 A2979 RMK A01 T03170147  RH  036%=      5-min Rain = 0
KGDS 140005Z 14013KT 32/15 A2979 RMK A01 T03170148  RH  037%=      5-min Rain = 0
KGDS 140010Z 13012KT 32/15 A2979 RMK A01 T03160148  RH  037%=      5-min Rain = 0
KGDS 140015Z 13015G20KT 32/15 A2978 RMK A01 T03150147  RH  037%=      5-min Rain = 0
KGDS 140020Z 13016KT 32/15 A2978 RMK A01 T03150148  RH  037%=      5-min Rain = 0
KGDS 140025Z 14013G18KT 31/15 A2978 RMK A01 T03140148  RH  037%=      5-min Rain = 0
KGDS 140030Z 13013KT 31/15 A2978 RMK A01 T03140148  RH  037%=      5-min Rain = 0
KGDS 140035Z 13013KT 31/15 A2977 RMK A01 T03130147  RH  037%=      5-min Rain = 0
KGDS 140040Z 13015G20KT 31/15 A2977 RMK A01 T03120147  RH  037%=      5-min Rain = 0
KGDS 140045Z 14014G20KT 31/15 A2978 RMK A01 T03120147  RH  037%=      5-min Rain = 0
KGDS 140050Z 14013KT 31/15 A2979 RMK A01 T03120147  RH  038%=      5-min Rain = 0
KGDS 140055Z 13012KT 31/15 A298 RMK A01 T03100147  RH  038%=      5-min Rain = 0
KGDS 140100Z 13012KT 31/15 A298 RMK A01 T03090149  RH  039%=      5-min Rain = 0
KGDS 140105Z 13012G17KT 31/15 A298 RMK A01 T03070150  RH  039%=      5-min Rain = 0
KGDS 140110Z 13011KT 31/15 A298 RMK A01 T03060150  RH  040%=      5-min Rain = 0
KGDS 140115Z 13012KT 31/15 A298 RMK A01 T03050150  RH  040%=      5-min Rain = 0
KGDS 140120Z 13012KT 31/15 A298 RMK A01 T03050150  RH  040%=      5-min Rain = 0
KGDS 140125Z 12013G18KT 30/15 A298 RMK A01 T03030152  RH  041%=      5-min Rain = 0
KGDS 140130Z 12014KT 30/15 A2981 RMK A01 T03030154  RH  041%=      5-min Rain = 0
KGDS 140135Z 12014G19KT 30/15 A2981 RMK A01 T03020154  RH  042%=      5-min Rain = 0
KGDS 140140Z 12015G20KT 30/16 A2979 RMK A01 T03010155  RH  042%=      5-min Rain = 0
KGDS 140145Z 12016KT 30/16 A2978 RMK A01 T02990155  RH  043%=      5-min Rain = 0
KGDS 140150Z 12013G19KT 30/16 A2982 RMK A01 T02990156  RH  043%=      5-min Rain = 0
KGDS 140155Z 12010G16KT 30/16 A2985 RMK A01 T02980156  RH  043%=      5-min Rain = 0
KGDS 140200Z 12011KT 30/16 A2985 RMK A01 T02980157  RH  044%=      5-min Rain = 0
KGDS 140205Z 12009KT 30/16 A2984 RMK A01 T02960158  RH  044%=      5-min Rain = 0
KGDS 140210Z 11008KT 30/16 A2985 RMK A01 T02950158  RH  045%=      5-min Rain = 0
KGDS 140215Z 11008KT 29/16 A2986 RMK A01 T02940158  RH  045%=      5-min Rain = 0
KGDS 140220Z 11008KT 29/16 A2986 RMK A01 T02930157  RH  045%=      5-min Rain = 0
KGDS 140225Z 11008KT 29/16 A2985 RMK A01 T02920158  RH  045%=      5-min Rain = 0
KGDS 140230Z 11008KT 29/16 A2985 RMK A01 T02910158  RH  045%=      5-min Rain = 0
KGDS 140235Z 11006KT 29/16 A2986 RMK A01 T02900159  RH  046%=      5-min Rain = 0
KGDS 140240Z 10004KT 29/16 A2988 RMK A01 T02870162  RH  048%=      5-min Rain = 0
KGDS 140245Z 07003KT 29/16 A2989 RMK A01 T02850162  RH  048%=      5-min Rain = 0
KGDS 140250Z 32005KT 28/17 A2989 RMK A01 T02830169  RH  051%=      5-min Rain = 0
KGDS 140255Z 33009KT 28/17 A2989 RMK A01 T02770172  RH  054%=      5-min Rain = 0
KGDS 140300Z 35011KT 28/17 A2988 RMK A01 T02760170  RH  054%=      5-min Rain = 0
KGDS 140305Z 00009KT 28/17 A2989 RMK A01 T02780168  RH  053%=      5-min Rain = 0
KGDS 140310Z 01008KT 28/17 A299 RMK A01 T02790168  RH  052%=      5-min Rain = 0
KGDS 140315Z 03007KT 28/16 A2991 RMK A01 T02790164  RH  050%=      5-min Rain = 0
KGDS 140320Z 07010KT 28/16 A2989 RMK A01 T02810161  RH  049%=      5-min Rain = 0
KGDS 140325Z 09013KT 28/16 A2988 RMK A01 T02790160  RH  049%=      5-min Rain = 0
KGDS 140330Z 09012KT 28/16 A2988 RMK A01 T02780160  RH  050%=      5-min Rain = 0
KGDS 140335Z 09008KT 28/16 A299 RMK A01 T02760163  RH  051%=      5-min Rain = 0
KGDS 140340Z 29011G22KT 27/16 A2993 RMK A01 T02700163  RH  053%=      5-min Rain = 0
KGDS 140345Z 31010G16KT 25/16 A2994 RMK A01 T02480164  RH  061%=      5-min Rain = 0
KGDS 140350Z 23015G34KT 27/17 A2993 RMK A01 T02670165  RH  055%=      5-min Rain = 0
KGDS 140355Z 03010G15KT 28/16 A2994 RMK A01 T02780162  RH  050%=      5-min Rain = 0
KGDS 140400Z 34013G19KT 26/17 A2994 RMK A01 T02600171  RH  059%=      5-min Rain = 0
KGDS 140405Z 35012G19KT 25/18 A2994 RMK A01 T02490176  RH  066%=      5-min Rain = 0
KGDS 140410Z 01013G18KT 24/18 A2993 RMK A01 T02380180  RH  072%=      5-min Rain = 0
KGDS 140415Z 04010KT 24/18 A2992 RMK A01 T02360180  RH  072%=      5-min Rain = 0
KGDS 140420Z 07009KT 24/18 A2992 RMK A01 T02370180  RH  072%=      5-min Rain = 0
KGDS 140425Z 06010KT 24/18 A2991 RMK A01 T02440176  RH  067%=      5-min Rain = 0
KGDS 140430Z 06010KT 25/18 A2991 RMK A01 T02460175  RH  066%=      5-min Rain = 0
KGDS 140435Z 07008KT 25/18 A2991 RMK A01 T02450175  RH  067%=      5-min Rain = 0
KGDS 140440Z 07010KT 24/18 A299 RMK A01 T02440175  RH  067%=      5-min Rain = 0
KGDS 140445Z 08009KT 25/17 A299 RMK A01 T02460174  RH  066%=      5-min Rain = 0
KGDS 140450Z 07010KT 24/18 A299 RMK A01 T02440176  RH  068%=      5-min Rain = 0
KGDS 140455Z 07010KT 24/18 A299 RMK A01 T02380178  RH  071%=      5-min Rain = 0

Page generated in 0.0092 seconds.